createdAt,value
2023-02-11T00:02:05.434Z,-17.41
2023-02-11T00:05:09.866Z,-17.38
2023-02-11T00:08:18.475Z,-17.31
2023-02-11T00:14:43.736Z,-17.24
2023-02-11T00:17:53.886Z,-17.11
2023-02-11T00:21:05.304Z,-17.06
2023-02-11T00:27:31.307Z,-16.60
2023-02-11T00:30:49.117Z,-16.44
2023-02-11T00:34:04.840Z,-16.48
2023-02-11T00:37:14.334Z,-16.86
2023-02-11T00:40:30.272Z,-16.86
2023-02-11T00:43:36.248Z,-16.89
2023-02-11T00:50:15.286Z,-16.86
2023-02-11T00:56:45.639Z,-16.73
2023-02-11T00:59:55.416Z,-16.63
2023-02-11T01:03:13.023Z,-16.56
2023-02-11T01:09:44.317Z,-16.34
2023-02-11T01:13:18.900Z,-16.35
2023-02-11T01:16:25.722Z,-16.31
2023-02-11T01:19:32.843Z,-16.34
2023-02-11T01:26:15.116Z,-16.34
2023-02-11T01:29:28.745Z,-16.28
2023-02-11T01:32:39.623Z,-16.24
2023-02-11T01:42:33.052Z,-15.92
2023-02-11T02:11:28.886Z,-15.40
2023-02-11T04:37:01.678Z,-9.44
2023-02-11T04:43:45.397Z,-9.17
2023-02-11T04:50:08.467Z,-8.99
2023-02-11T04:53:12.339Z,-8.88
2023-02-11T04:56:20.340Z,-8.89
2023-02-11T04:59:25.449Z,-8.88
2023-02-11T05:02:29.375Z,-8.68
2023-02-11T05:08:53.744Z,-8.57
2023-02-11T05:15:23.426Z,-8.51
2023-02-11T05:25:29.919Z,-7.96
2023-02-11T05:55:31.916Z,-7.03
2023-02-11T06:11:59.771Z,-6.56
2023-02-11T06:15:13.248Z,-6.39
2023-02-11T06:43:06.876Z,-5.91
2023-02-11T07:28:54.522Z,-5.62
2023-02-11T08:20:57.961Z,-5.74
2023-02-11T08:27:24.332Z,-5.84
2023-02-11T08:40:48.126Z,-6.40
2023-02-11T08:43:54.250Z,-6.56
2023-02-11T08:50:41.891Z,-6.82
2023-02-11T09:00:34.602Z,-7.13
2023-02-11T09:03:41.810Z,-7.22
2023-02-11T09:10:53.696Z,-7.40
2023-02-11T09:34:05.713Z,-7.79
2023-02-11T09:37:16.195Z,-7.82
2023-02-11T09:40:30.546Z,-7.88
2023-02-11T09:47:21.974Z,-7.95
2023-02-11T09:54:05.693Z,-7.92
2023-02-11T09:57:23.135Z,-7.96
2023-02-11T10:15:37.094Z,-8.13
2023-02-11T10:19:02.755Z,-8.19
2023-02-11T10:33:37.604Z,-8.27
2023-02-11T10:44:02.467Z,-8.38
2023-02-11T10:50:39.606Z,-8.41
2023-02-11T10:53:56.806Z,-8.40
2023-02-11T11:00:48.111Z,-8.41
2023-02-11T11:08:12.375Z,-8.48
2023-02-11T11:11:22.258Z,-8.47
2023-02-11T11:14:39.432Z,-8.47
2023-02-11T11:39:04.881Z,-8.69
2023-02-11T11:46:31.041Z,-8.76
2023-02-11T11:54:19.017Z,-8.71
2023-02-11T11:57:54.819Z,-8.71
2023-02-11T14:47:35.166Z,-11.28
2023-02-11T14:54:15.776Z,-11.65
2023-02-11T14:57:23.909Z,-11.69
2023-02-11T15:03:51.282Z,-11.91
2023-02-11T15:07:20.138Z,-11.97
2023-02-11T15:11:00.119Z,-12.00
2023-02-11T15:28:39.948Z,-11.72
2023-02-11T15:31:49.372Z,-11.51
2023-02-11T15:41:52.814Z,-11.18
2023-02-11T15:45:18.130Z,-11.13
2023-02-11T15:48:39.782Z,-11.10
2023-02-11T16:05:16.572Z,-11.10
2023-02-11T16:08:37.994Z,-11.06
2023-02-11T16:12:18.407Z,-11.08
2023-02-11T16:15:55.762Z,-11.14
2023-02-11T16:19:05.292Z,-11.13
2023-02-11T16:30:24.148Z,-11.21
2023-02-11T16:33:35.202Z,-11.25
2023-02-11T16:36:43.808Z,-11.28
2023-02-11T16:39:49.508Z,-11.32
2023-02-11T16:46:19.524Z,-11.36
2023-02-11T16:49:37.377Z,-11.38
2023-02-11T16:52:47.324Z,-11.44
2023-02-11T16:55:54.622Z,-11.44
2023-02-11T16:59:00.329Z,-11.46
2023-02-11T17:02:05.748Z,-11.48
2023-02-11T17:05:19.603Z,-11.52
2023-02-11T17:08:25.096Z,-11.53
2023-02-11T17:11:34.618Z,-11.55
2023-02-11T17:14:39.550Z,-11.61
2023-02-11T17:17:45.061Z,-11.66
2023-02-11T17:20:50.048Z,-11.66
2023-02-11T17:23:56.290Z,-11.73
2023-02-11T17:27:04.287Z,-11.76
2023-02-11T17:30:12.760Z,-11.98
2023-02-11T17:33:17.282Z,-12.27
2023-02-11T17:36:27.652Z,-12.38
2023-02-11T17:39:31.531Z,-12.50
2023-02-11T17:42:36.720Z,-12.57
2023-02-11T17:45:43.535Z,-12.70
2023-02-11T17:48:48.306Z,-12.69
2023-02-11T17:51:53.879Z,-12.84
2023-02-11T17:55:08.085Z,-12.95
2023-02-11T17:58:11.307Z,-13.02
2023-02-11T18:01:21.180Z,-13.07
2023-02-11T18:04:29.146Z,-13.19
2023-02-11T18:07:34.804Z,-13.23
2023-02-11T18:10:42.688Z,-13.32
2023-02-11T18:13:52.352Z,-13.35
2023-02-11T18:16:59.775Z,-13.49
2023-02-11T18:20:04.912Z,-13.53
2023-02-11T18:23:12.216Z,-13.59
2023-02-11T18:26:16.871Z,-13.56
2023-02-11T18:29:22.401Z,-13.70
2023-02-11T18:32:32.787Z,-13.81
2023-02-11T18:35:51.890Z,-13.77
2023-02-11T18:38:58.104Z,-13.81
2023-02-11T18:42:02.050Z,-13.85
2023-02-11T18:45:12.558Z,-13.71
2023-02-11T18:48:17.674Z,-13.51
2023-02-11T18:51:23.403Z,-13.25
2023-02-11T18:54:30.721Z,-13.04
2023-02-11T18:57:36.249Z,-12.85
2023-02-11T19:00:42.800Z,-12.74
2023-02-11T19:03:50.829Z,-12.62
2023-02-11T19:06:55.072Z,-12.59
2023-02-11T19:10:00.912Z,-12.59
2023-02-11T19:13:05.203Z,-12.52
2023-02-11T19:16:15.500Z,-12.50
2023-02-11T19:19:24.201Z,-12.48
2023-02-11T19:22:28.565Z,-12.48
2023-02-11T19:25:31.744Z,-12.42
2023-02-11T19:28:38.866Z,-12.46
2023-02-11T19:31:44.350Z,-12.50
2023-02-11T19:34:49.734Z,-12.50
2023-02-11T19:37:55.204Z,-12.55
2023-02-11T19:41:01.416Z,-12.55
2023-02-11T19:44:07.511Z,-12.55
2023-02-11T19:47:12.389Z,-12.57
2023-02-11T19:50:17.910Z,-12.60
2023-02-11T19:53:22.096Z,-12.56
2023-02-11T19:56:28.005Z,-12.60
2023-02-11T19:59:32.234Z,-12.60
2023-02-11T20:02:40.780Z,-12.63
2023-02-11T20:05:48.927Z,-12.63
2023-02-11T20:09:15.746Z,-12.65
2023-02-11T20:12:19.478Z,-12.69
2023-02-11T20:15:26.620Z,-12.76
2023-02-11T20:18:30.018Z,-12.76
2023-02-11T20:21:35.240Z,-12.79
2023-02-11T20:24:41.548Z,-12.79
2023-02-11T20:27:47.669Z,-12.77
2023-02-11T20:31:02.888Z,-12.79
2023-02-11T20:34:06.663Z,-12.81
2023-02-11T20:37:11.902Z,-12.85
2023-02-11T20:40:17.345Z,-12.87
2023-02-11T20:43:22.479Z,-12.91
2023-02-11T20:46:28.367Z,-12.88
2023-02-11T20:49:33.231Z,-12.88
2023-02-11T20:52:38.062Z,-13.01
2023-02-11T20:55:44.277Z,-13.26
2023-02-11T20:58:49.221Z,-13.51
2023-02-11T21:01:56.457Z,-13.64
2023-02-11T21:05:00.771Z,-13.73
2023-02-11T21:08:07.465Z,-13.94
2023-02-11T21:11:12.402Z,-14.06
2023-02-11T21:14:21.836Z,-14.08
2023-02-11T21:17:30.315Z,-14.05
2023-02-11T21:20:36.133Z,-14.09
2023-02-11T21:23:51.515Z,-14.21
2023-02-11T21:26:56.674Z,-14.25
2023-02-11T21:30:05.229Z,-14.29
2023-02-11T21:33:21.143Z,-14.33
2023-02-11T21:36:25.059Z,-14.39
2023-02-11T21:39:29.808Z,-14.44
2023-02-11T21:42:34.813Z,-14.63
2023-02-11T21:45:48.087Z,-14.65
2023-02-11T21:48:53.462Z,-14.68
2023-02-11T21:51:58.122Z,-14.71
2023-02-11T21:55:02.222Z,-14.64
2023-02-11T21:58:08.680Z,-14.56
2023-02-11T22:01:34.930Z,-14.60
2023-02-11T22:04:39.293Z,-14.46
2023-02-11T22:07:42.499Z,-14.36
2023-02-11T22:10:47.383Z,-14.33
2023-02-11T22:14:05.700Z,-14.32
2023-02-11T22:17:10.976Z,-14.26
2023-02-11T22:20:15.711Z,-14.32
2023-02-11T22:26:41.799Z,-14.60
2023-02-11T22:29:46.243Z,-14.74
2023-02-11T22:32:50.788Z,-14.79
2023-02-11T22:36:04.606Z,-14.79
2023-02-11T22:39:12.082Z,-14.85
2023-02-11T22:42:23.934Z,-14.84
2023-02-11T22:45:27.698Z,-14.89
2023-02-11T22:48:32.869Z,-14.85
2023-02-11T22:51:38.056Z,-14.85
2023-02-11T22:54:42.811Z,-14.85
2023-02-11T22:57:48.303Z,-14.93
2023-02-11T23:00:55.512Z,-14.99
2023-02-11T23:04:03.093Z,-14.96
2023-02-11T23:07:06.966Z,-14.92
2023-02-11T23:10:11.559Z,-14.92
2023-02-11T23:13:17.598Z,-14.91
2023-02-11T23:16:31.728Z,-14.91
2023-02-11T23:19:36.959Z,-14.98
2023-02-11T23:22:41.557Z,-14.92
2023-02-11T23:25:54.303Z,-14.85
2023-02-11T23:29:01.883Z,-14.67
2023-02-11T23:32:06.098Z,-14.74
2023-02-11T23:35:11.513Z,-14.54
2023-02-11T23:38:15.736Z,-14.51
2023-02-11T23:41:24.772Z,-14.81
2023-02-11T23:44:33.690Z,-14.87
2023-02-11T23:47:37.206Z,-14.70
2023-02-11T23:50:42.049Z,-14.43
2023-02-11T23:53:48.757Z,-14.42
2023-02-11T23:56:53.913Z,-14.44
